createdAt,value
2019-03-25T00:02:28.764Z,21.59
2019-03-25T00:04:57.072Z,21.13
2019-03-25T00:07:25.402Z,22.31
2019-03-25T00:09:53.660Z,23.05
2019-03-25T00:12:21.927Z,22.62
2019-03-25T00:14:50.203Z,22.05
2019-03-25T00:17:18.469Z,22.26
2019-03-25T00:19:46.796Z,22.64
2019-03-25T00:22:15.065Z,23.43
2019-03-25T00:24:43.347Z,23.86
2019-03-25T00:27:11.605Z,20.98
2019-03-25T00:29:40.723Z,21.08
2019-03-25T00:32:09.177Z,21.77
2019-03-25T00:34:37.483Z,23.46
2019-03-25T00:37:07.522Z,22.65
2019-03-25T00:39:35.805Z,20.34
2019-03-25T00:42:04.117Z,20.77
2019-03-25T00:44:33.247Z,22.54
2019-03-25T00:47:01.535Z,21.74
2019-03-25T00:49:29.777Z,22.14
2019-03-25T00:51:58.039Z,22.60
2019-03-25T00:54:26.335Z,21.37
2019-03-25T00:56:54.597Z,22.54
2019-03-25T00:59:22.902Z,23.25
2019-03-25T01:01:51.129Z,22.58
2019-03-25T01:04:19.425Z,22.97
2019-03-25T01:06:47.702Z,20.44
2019-03-25T01:09:15.972Z,20.71
2019-03-25T01:11:49.024Z,20.80
2019-03-25T01:14:14.248Z,22.26
2019-03-25T01:16:42.581Z,22.59
2019-03-25T01:19:10.847Z,22.86
2019-03-25T01:21:39.103Z,21.47
2019-03-25T01:24:07.649Z,21.13
2019-03-25T01:26:35.928Z,20.72
2019-03-25T01:29:04.225Z,19.68
2019-03-25T01:31:32.475Z,20.56
2019-03-25T01:34:00.820Z,21.35
2019-03-25T01:36:29.136Z,20.61
2019-03-25T01:38:57.392Z,21.58
2019-03-25T01:41:25.666Z,22.25
2019-03-25T01:43:54.026Z,22.07
2019-03-25T01:46:22.321Z,21.62
2019-03-25T01:48:50.591Z,21.53
2019-03-25T01:51:18.928Z,20.71
2019-03-25T01:53:47.201Z,20.36
2019-03-25T01:56:15.447Z,20.20
2019-03-25T01:58:43.725Z,20.42
2019-03-25T02:01:12.466Z,20.25
2019-03-25T02:03:40.716Z,19.38
2019-03-25T02:06:08.996Z,19.34
2019-03-25T02:08:37.247Z,19.63
2019-03-25T02:11:05.581Z,19.36
2019-03-25T02:13:33.847Z,19.25
2019-03-25T02:16:02.132Z,18.49
2019-03-25T02:18:30.426Z,19.69
2019-03-25T02:20:58.766Z,19.63
2019-03-25T02:23:27.016Z,18.10
2019-03-25T02:25:55.310Z,18.31
2019-03-25T02:28:23.604Z,19.57
2019-03-25T02:30:51.869Z,18.97
2019-03-25T02:33:21.681Z,18.82
2019-03-25T02:35:49.960Z,19.30
2019-03-25T02:38:18.329Z,18.74
2019-03-25T02:40:46.613Z,18.32
2019-03-25T02:43:15.970Z,19.18
2019-03-25T02:45:44.268Z,18.61
2019-03-25T02:48:12.519Z,18.57
2019-03-25T02:50:40.808Z,18.96
2019-03-25T02:53:09.139Z,19.01
2019-03-25T02:55:42.134Z,18.22
2019-03-25T02:58:07.475Z,17.64
2019-03-25T03:00:37.179Z,18.35
2019-03-25T03:03:06.594Z,18.90
2019-03-25T03:05:35.490Z,18.62
2019-03-25T03:08:03.912Z,19.56
2019-03-25T03:10:32.175Z,20.30
2019-03-25T03:13:00.468Z,17.56
2019-03-25T03:15:28.743Z,18.45
2019-03-25T03:17:57.051Z,18.50
2019-03-25T03:20:25.320Z,18.93
2019-03-25T03:22:53.575Z,18.67
2019-03-25T03:25:22.071Z,18.69
2019-03-25T03:27:51.129Z,17.59
2019-03-25T03:30:19.378Z,18.35
2019-03-25T03:32:47.654Z,18.16
2019-03-25T03:35:15.998Z,18.88
2019-03-25T03:37:44.251Z,18.69
2019-03-25T03:40:12.513Z,17.66
2019-03-25T03:42:40.872Z,16.58
2019-03-25T03:45:09.323Z,16.75
2019-03-25T03:47:37.588Z,17.31
2019-03-25T03:50:13.895Z,16.85
2019-03-25T03:52:41.108Z,17.32
2019-03-25T03:55:09.438Z,17.62
2019-03-25T03:57:37.772Z,18.00
2019-03-25T04:00:07.344Z,17.83
2019-03-25T04:02:35.611Z,17.17
2019-03-25T04:05:04.211Z,18.98
2019-03-25T04:07:32.461Z,17.31
2019-03-25T04:10:00.753Z,17.95
2019-03-25T04:12:29.095Z,17.84
2019-03-25T04:14:57.437Z,17.62
2019-03-25T04:17:27.203Z,18.01
2019-03-25T04:19:55.439Z,17.96
2019-03-25T04:22:23.716Z,16.65
2019-03-25T04:24:52.018Z,17.47
2019-03-25T04:27:24.332Z,16.93
2019-03-25T04:29:51.944Z,18.04
2019-03-25T04:32:20.201Z,17.66
2019-03-25T04:34:48.473Z,18.04
2019-03-25T04:37:16.740Z,16.99
2019-03-25T04:39:45.027Z,18.28
2019-03-25T04:42:13.310Z,18.25
2019-03-25T04:44:41.581Z,16.89
2019-03-25T04:47:09.829Z,17.64
2019-03-25T04:49:38.150Z,16.19
2019-03-25T04:52:08.000Z,16.75
2019-03-25T04:54:36.296Z,16.57
2019-03-25T04:57:04.533Z,17.70
2019-03-25T04:59:32.797Z,17.70
2019-03-25T05:02:01.086Z,19.49
2019-03-25T05:04:29.416Z,18.08
2019-03-25T05:06:57.685Z,18.39
2019-03-25T05:09:25.947Z,17.89
2019-03-25T05:11:54.201Z,16.65
2019-03-25T05:14:22.466Z,16.51
2019-03-25T05:16:50.725Z,17.36
2019-03-25T05:19:18.980Z,16.89
2019-03-25T05:21:47.317Z,18.41
2019-03-25T05:24:16.421Z,19.24
2019-03-25T05:26:51.026Z,16.41
2019-03-25T05:29:14.703Z,17.25
2019-03-25T05:31:43.019Z,18.49
2019-03-25T05:34:11.366Z,19.15
2019-03-25T05:36:39.591Z,17.03
2019-03-25T05:39:08.899Z,17.31
2019-03-25T05:41:37.222Z,18.11
2019-03-25T05:44:05.501Z,16.98
2019-03-25T05:46:34.309Z,17.32
2019-03-25T05:49:02.659Z,15.99
2019-03-25T05:51:30.879Z,17.90
2019-03-25T05:53:59.163Z,16.89
2019-03-25T05:56:27.445Z,17.75
2019-03-25T05:58:55.697Z,16.64
2019-03-25T06:01:24.342Z,17.28
2019-03-25T06:03:52.720Z,16.99
2019-03-25T06:06:20.998Z,17.70
2019-03-25T06:08:49.244Z,16.37
2019-03-25T06:11:17.521Z,17.22
2019-03-25T06:13:45.867Z,17.27
2019-03-25T06:16:14.147Z,16.87
2019-03-25T06:18:42.411Z,17.16
2019-03-25T06:21:10.698Z,17.11
2019-03-25T06:23:41.630Z,16.57
2019-03-25T06:26:09.909Z,17.82
2019-03-25T06:28:38.219Z,17.52
2019-03-25T06:31:06.799Z,17.10
2019-03-25T06:33:35.154Z,17.48
2019-03-25T06:36:03.378Z,17.36
2019-03-25T06:38:31.634Z,18.88
2019-03-25T06:41:02.165Z,17.08
2019-03-25T06:43:30.423Z,17.19
2019-03-25T06:45:59.568Z,18.12
2019-03-25T06:48:27.834Z,18.42
2019-03-25T06:50:56.110Z,18.54
2019-03-25T06:53:24.399Z,17.67
2019-03-25T06:55:52.668Z,17.61
2019-03-25T06:58:20.990Z,18.61
2019-03-25T07:00:49.250Z,18.22
2019-03-25T07:03:17.541Z,17.46
2019-03-25T07:05:46.652Z,18.73
2019-03-25T07:08:14.957Z,18.18
2019-03-25T07:10:43.292Z,18.86
2019-03-25T07:13:11.697Z,19.83
2019-03-25T07:15:39.961Z,19.30
2019-03-25T07:18:08.233Z,19.58
2019-03-25T07:20:36.613Z,19.13
2019-03-25T07:23:04.968Z,19.04
2019-03-25T07:25:33.257Z,18.20
2019-03-25T07:28:01.506Z,18.35
2019-03-25T07:30:29.785Z,18.01
2019-03-25T07:32:58.063Z,17.86
2019-03-25T07:35:27.054Z,18.77
2019-03-25T07:37:55.332Z,18.29
2019-03-25T07:40:23.626Z,17.99
2019-03-25T07:42:51.915Z,19.30
2019-03-25T07:45:20.170Z,18.67
2019-03-25T07:47:48.510Z,18.55
2019-03-25T07:50:16.863Z,18.52
2019-03-25T07:52:46.872Z,19.97
2019-03-25T07:55:15.131Z,20.58
2019-03-25T07:57:48.351Z,21.93
2019-03-25T08:00:16.653Z,19.50
2019-03-25T08:02:45.181Z,19.45
2019-03-25T08:05:13.509Z,19.63
2019-03-25T08:07:41.852Z,19.03
2019-03-25T08:10:10.617Z,22.49
2019-03-25T08:12:38.849Z,22.52
2019-03-25T08:15:07.893Z,19.90
2019-03-25T08:17:36.136Z,19.99
2019-03-25T08:20:06.586Z,21.16
2019-03-25T08:22:34.927Z,21.00
2019-03-25T08:25:03.754Z,19.83
2019-03-25T08:27:32.018Z,20.31
2019-03-25T08:30:00.381Z,19.81
2019-03-25T08:32:28.590Z,19.81
2019-03-25T08:34:56.853Z,20.58
2019-03-25T08:37:25.129Z,20.15
2019-03-25T08:39:53.384Z,19.95
2019-03-25T08:42:21.687Z,20.70
2019-03-25T08:44:49.975Z,20.17
2019-03-25T08:47:18.314Z,19.66
2019-03-25T08:49:46.654Z,20.43
2019-03-25T08:52:14.916Z,20.52
2019-03-25T08:54:43.185Z,20.51
2019-03-25T08:57:11.461Z,19.87
2019-03-25T08:59:39.758Z,20.81
2019-03-25T09:02:08.032Z,20.40
2019-03-25T09:04:36.303Z,19.42
2019-03-25T09:07:04.555Z,20.06
2019-03-25T09:09:32.835Z,20.72
2019-03-25T09:12:01.104Z,21.09
2019-03-25T09:14:29.353Z,22.39
2019-03-25T09:17:00.466Z,20.51
2019-03-25T09:19:27.694Z,21.50
2019-03-25T09:21:56.026Z,20.84
2019-03-25T09:24:24.295Z,22.15
2019-03-25T09:26:52.573Z,20.90
2019-03-25T09:29:20.897Z,22.42
2019-03-25T09:31:49.154Z,19.90
2019-03-25T09:34:17.442Z,20.71
2019-03-25T09:36:45.726Z,21.41
2019-03-25T09:39:13.988Z,21.83
2019-03-25T09:41:42.274Z,21.83
2019-03-25T09:44:11.483Z,20.64
2019-03-25T09:46:39.749Z,20.48
2019-03-25T09:49:08.014Z,19.80
2019-03-25T09:51:36.289Z,20.94
2019-03-25T09:54:04.667Z,22.75
2019-03-25T09:56:32.943Z,22.91
2019-03-25T09:59:01.211Z,21.13
2019-03-25T10:01:29.488Z,21.15
2019-03-25T10:03:57.745Z,20.41
2019-03-25T10:06:26.031Z,20.73
2019-03-25T10:08:54.369Z,20.94
2019-03-25T10:11:22.692Z,21.74
2019-03-25T10:13:50.983Z,21.17
2019-03-25T10:16:19.245Z,21.37
2019-03-25T10:18:47.524Z,21.58
2019-03-25T10:21:15.811Z,21.87
2019-03-25T10:23:44.154Z,21.50
2019-03-25T10:26:12.442Z,22.92
2019-03-25T10:28:48.423Z,21.99
2019-03-25T10:31:10.796Z,23.72
2019-03-25T10:33:39.126Z,23.24
2019-03-25T10:36:07.715Z,23.21
2019-03-25T10:38:35.979Z,22.90
2019-03-25T10:41:04.259Z,22.45
2019-03-25T10:43:32.547Z,21.70
2019-03-25T10:46:00.803Z,22.28
2019-03-25T10:48:29.165Z,23.24
2019-03-25T10:50:57.417Z,22.95
2019-03-25T10:53:25.675Z,22.93
2019-03-25T10:55:53.939Z,22.74
2019-03-25T10:58:22.221Z,23.06
2019-03-25T11:00:50.545Z,22.78
2019-03-25T11:03:19.115Z,22.47
2019-03-25T11:05:47.559Z,22.35
2019-03-25T11:08:15.827Z,23.59
2019-03-25T11:10:44.152Z,23.32
2019-03-25T11:13:12.470Z,23.26
2019-03-25T11:15:40.755Z,21.79
2019-03-25T11:18:09.038Z,22.26
2019-03-25T11:20:37.323Z,22.09
2019-03-25T11:23:05.648Z,21.90
2019-03-25T11:25:33.900Z,23.31
2019-03-25T11:28:02.192Z,23.52
2019-03-25T11:30:49.432Z,21.55
2019-03-25T11:33:17.743Z,23.28
2019-03-25T11:35:46.089Z,23.05
2019-03-25T11:38:14.352Z,22.94
2019-03-25T11:40:42.722Z,23.64
2019-03-25T11:43:10.980Z,23.51
2019-03-25T11:45:39.242Z,23.02
2019-03-25T11:48:07.523Z,23.12
2019-03-25T11:50:35.767Z,21.73
2019-03-25T11:53:04.169Z,23.78
2019-03-25T11:55:32.480Z,21.48
2019-03-25T11:58:00.774Z,23.33
2019-03-25T12:00:29.042Z,22.95
2019-03-25T12:02:57.291Z,22.26
2019-03-25T12:05:25.583Z,22.36
2019-03-25T12:07:53.864Z,23.37
2019-03-25T12:10:22.120Z,22.56
2019-03-25T12:12:50.413Z,23.05
2019-03-25T12:15:18.700Z,22.45
2019-03-25T12:17:46.944Z,22.07
2019-03-25T12:20:15.260Z,22.03
2019-03-25T12:22:43.477Z,23.02
2019-03-25T12:25:11.931Z,23.35
2019-03-25T12:27:40.648Z,24.94
2019-03-25T12:30:10.277Z,24.59
2019-03-25T12:32:38.553Z,25.01
2019-03-25T12:35:08.266Z,27.63
2019-03-25T12:37:36.592Z,26.20
2019-03-25T12:40:07.852Z,26.03
2019-03-25T12:42:36.397Z,25.22
2019-03-25T12:45:06.698Z,24.27
2019-03-25T12:47:34.957Z,23.54
2019-03-25T12:50:04.139Z,24.46
2019-03-25T12:52:32.484Z,24.48
2019-03-25T12:55:02.412Z,24.13
2019-03-25T12:57:30.717Z,22.54
2019-03-25T12:59:59.086Z,20.84
2019-03-25T13:02:27.339Z,22.29
2019-03-25T13:04:55.606Z,23.90
2019-03-25T13:07:23.886Z,28.95
2019-03-25T13:09:52.156Z,27.98
2019-03-25T13:12:20.487Z,27.91
2019-03-25T13:14:48.749Z,28.89
2019-03-25T13:17:17.011Z,29.38
2019-03-25T13:19:45.291Z,32.08
2019-03-25T13:22:13.679Z,29.09
2019-03-25T13:24:42.039Z,26.35
2019-03-25T13:27:10.293Z,27.91
2019-03-25T13:29:38.571Z,28.81
2019-03-25T13:32:06.866Z,29.07
2019-03-25T13:34:35.140Z,25.92
2019-03-25T13:37:03.412Z,25.11
2019-03-25T13:39:31.671Z,22.20
2019-03-25T13:42:00.037Z,21.54
2019-03-25T13:44:28.307Z,21.72
2019-03-25T13:46:56.575Z,20.83
2019-03-25T13:49:24.839Z,20.45
2019-03-25T13:51:53.122Z,21.05
2019-03-25T13:54:21.445Z,21.80
2019-03-25T13:56:49.729Z,22.40
2019-03-25T13:59:18.013Z,22.01
2019-03-25T14:01:46.351Z,22.64
2019-03-25T14:04:14.643Z,22.33
2019-03-25T14:06:42.919Z,22.17
2019-03-25T14:09:11.257Z,25.01
2019-03-25T14:11:39.539Z,25.47
2019-03-25T14:14:07.880Z,24.41
2019-03-25T14:16:36.175Z,24.89
2019-03-25T14:19:06.232Z,23.86
2019-03-25T14:21:34.509Z,24.91
2019-03-25T14:24:02.870Z,22.73
2019-03-25T14:26:31.123Z,22.96
2019-03-25T14:28:59.403Z,21.48
2019-03-25T14:31:27.712Z,22.77
2019-03-25T14:33:55.934Z,22.78
2019-03-25T14:36:24.190Z,23.37
2019-03-25T14:38:52.467Z,22.54
2019-03-25T14:41:20.743Z,22.88
2019-03-25T14:43:49.012Z,23.48
2019-03-25T14:46:17.290Z,25.43
2019-03-25T14:48:45.584Z,28.60
2019-03-25T14:51:13.875Z,28.73
2019-03-25T14:53:45.163Z,29.36
2019-03-25T14:56:12.155Z,29.15
2019-03-25T14:58:40.433Z,30.25
2019-03-25T15:01:08.725Z,29.56
2019-03-25T15:03:37.164Z,30.23
2019-03-25T15:06:05.496Z,32.46
2019-03-25T15:08:33.783Z,32.45
2019-03-25T15:11:02.115Z,29.71
2019-03-25T15:13:30.393Z,31.28
2019-03-25T15:15:58.655Z,32.45
2019-03-25T15:18:26.954Z,29.58
2019-03-25T15:20:55.301Z,27.04
2019-03-25T15:23:23.554Z,25.73
2019-03-25T15:25:51.822Z,23.68
2019-03-25T15:28:20.098Z,26.15
2019-03-25T15:30:48.366Z,25.03
2019-03-25T15:33:23.738Z,24.19
2019-03-25T15:35:51.997Z,22.10
2019-03-25T15:38:20.297Z,22.49
2019-03-25T15:40:48.567Z,23.06
2019-03-25T15:43:16.864Z,23.60
2019-03-25T15:45:45.139Z,24.04
2019-03-25T15:48:13.410Z,24.92
2019-03-25T15:50:41.681Z,23.51
2019-03-25T15:53:09.964Z,22.57
2019-03-25T15:55:38.246Z,23.47
2019-03-25T15:58:06.593Z,25.08
2019-03-25T16:00:34.932Z,25.75
2019-03-25T16:03:03.185Z,26.45
2019-03-25T16:05:31.460Z,27.04
2019-03-25T16:07:59.726Z,24.47
2019-03-25T16:10:28.000Z,23.78
2019-03-25T16:12:56.381Z,25.64
2019-03-25T16:15:43.133Z,24.95
2019-03-25T16:18:32.672Z,25.10
2019-03-25T16:21:00.953Z,24.65
2019-03-25T16:23:29.202Z,24.69
2019-03-25T16:25:57.475Z,23.55
2019-03-25T16:28:25.745Z,21.71
2019-03-25T16:30:58.574Z,22.95
2019-03-25T16:33:24.082Z,21.24
2019-03-25T16:35:52.352Z,21.13
2019-03-25T16:38:20.904Z,21.86
2019-03-25T16:40:49.122Z,21.35
2019-03-25T16:43:17.451Z,22.14
2019-03-25T16:45:45.747Z,22.46
2019-03-25T16:48:14.041Z,22.26
2019-03-25T16:50:42.308Z,21.86
2019-03-25T16:53:10.581Z,21.59
2019-03-25T16:55:38.920Z,21.57
2019-03-25T16:58:07.208Z,22.05
2019-03-25T17:00:35.470Z,21.91
2019-03-25T17:03:03.747Z,22.00
2019-03-25T17:05:32.013Z,22.30
2019-03-25T17:08:00.290Z,21.62
2019-03-25T17:10:28.649Z,22.83
2019-03-25T17:12:56.910Z,20.95
2019-03-25T17:15:25.193Z,21.58
2019-03-25T17:17:53.484Z,20.78
2019-03-25T17:20:21.747Z,20.79
2019-03-25T17:22:50.020Z,20.60
2019-03-25T17:25:18.408Z,21.93
2019-03-25T17:27:46.658Z,21.07
2019-03-25T17:30:16.271Z,21.43
2019-03-25T17:32:44.560Z,21.27
2019-03-25T17:35:12.903Z,20.88
2019-03-25T17:37:41.180Z,20.86
2019-03-25T17:40:09.733Z,21.32
2019-03-25T17:42:37.988Z,21.81
2019-03-25T17:45:07.525Z,22.27
2019-03-25T17:47:35.816Z,24.69
2019-03-25T17:50:06.210Z,22.68
2019-03-25T17:52:34.565Z,21.85
2019-03-25T17:55:04.057Z,22.51
2019-03-25T17:57:32.326Z,23.10
2019-03-25T18:00:00.698Z,23.62
2019-03-25T18:02:28.986Z,22.35
2019-03-25T18:04:57.255Z,21.56
2019-03-25T18:07:25.609Z,20.35
2019-03-25T18:09:54.023Z,20.15
2019-03-25T18:12:22.250Z,21.82
2019-03-25T18:14:50.548Z,21.90
2019-03-25T18:17:18.829Z,20.05
2019-03-25T18:19:47.139Z,20.16
2019-03-25T18:22:15.391Z,24.54
2019-03-25T18:24:43.697Z,24.17
2019-03-25T18:27:11.915Z,23.54
2019-03-25T18:29:40.189Z,21.67
2019-03-25T18:32:08.525Z,22.92
2019-03-25T18:34:36.802Z,23.15
2019-03-25T18:37:05.156Z,23.09
2019-03-25T18:39:33.439Z,24.32
2019-03-25T18:42:03.837Z,24.01
2019-03-25T18:44:32.099Z,24.82
2019-03-25T18:47:03.393Z,23.11
2019-03-25T18:49:31.668Z,23.01
2019-03-25T18:51:59.942Z,24.14
2019-03-25T18:54:28.235Z,23.98
2019-03-25T18:56:56.550Z,23.31
2019-03-25T18:59:24.871Z,23.53
2019-03-25T19:01:54.720Z,21.88
2019-03-25T19:04:23.272Z,22.03
2019-03-25T19:06:51.627Z,23.26
2019-03-25T19:09:19.898Z,22.30
2019-03-25T19:11:48.170Z,21.58
2019-03-25T19:14:16.442Z,21.76
2019-03-25T19:16:44.703Z,22.09
2019-03-25T19:19:13.006Z,23.03
2019-03-25T19:21:41.306Z,22.86
2019-03-25T19:24:09.593Z,23.94
2019-03-25T19:26:37.862Z,23.75
2019-03-25T19:29:06.134Z,23.14
2019-03-25T19:31:34.422Z,22.93
2019-03-25T19:34:02.694Z,22.32
2019-03-25T19:36:30.967Z,23.94
2019-03-25T19:38:59.388Z,23.96
2019-03-25T19:41:32.488Z,25.35
2019-03-25T19:43:58.864Z,25.08
2019-03-25T19:46:27.134Z,25.58
2019-03-25T19:48:55.425Z,25.42
2019-03-25T19:51:23.693Z,21.61
2019-03-25T19:53:51.944Z,20.67
2019-03-25T19:56:20.240Z,23.74
2019-03-25T19:58:48.505Z,23.94
2019-03-25T20:01:16.805Z,25.72
2019-03-25T20:03:45.062Z,25.39
2019-03-25T20:06:25.813Z,23.68
2019-03-25T20:08:45.680Z,22.59
2019-03-25T20:11:13.957Z,21.43
2019-03-25T20:13:42.219Z,23.05
2019-03-25T20:16:10.519Z,23.26
2019-03-25T20:18:38.826Z,23.47
2019-03-25T20:21:07.254Z,24.23
2019-03-25T20:23:35.600Z,24.92
2019-03-25T20:26:03.875Z,25.05
2019-03-25T20:28:32.127Z,24.93
2019-03-25T20:31:00.401Z,24.83
2019-03-25T20:33:28.780Z,25.24
2019-03-25T20:35:57.106Z,24.65
2019-03-25T20:38:25.361Z,24.09
2019-03-25T20:40:53.697Z,23.32
2019-03-25T20:43:22.146Z,22.72
2019-03-25T20:45:50.475Z,23.30
2019-03-25T20:48:18.739Z,23.18
2019-03-25T20:50:47.081Z,22.19
2019-03-25T20:53:15.476Z,23.01
2019-03-25T20:55:43.780Z,23.22
2019-03-25T20:58:12.063Z,22.65
2019-03-25T21:00:51.380Z,23.62
2019-03-25T21:03:20.134Z,25.44
2019-03-25T21:05:48.455Z,23.74
2019-03-25T21:08:16.708Z,25.04
2019-03-25T21:10:45.340Z,26.02
2019-03-25T21:13:13.613Z,25.58
2019-03-25T21:15:41.933Z,24.80
2019-03-25T21:18:10.249Z,22.96
2019-03-25T21:20:41.357Z,24.49
2019-03-25T21:23:09.734Z,23.73
2019-03-25T21:25:37.964Z,22.74
2019-03-25T21:28:06.246Z,23.05
2019-03-25T21:30:47.076Z,23.14
2019-03-25T21:33:04.529Z,23.61
2019-03-25T21:35:32.786Z,24.02
2019-03-25T21:38:01.263Z,23.46
2019-03-25T21:40:29.655Z,24.44
2019-03-25T21:42:57.872Z,23.91
2019-03-25T21:45:26.175Z,23.86
2019-03-25T21:47:54.425Z,26.15
2019-03-25T21:50:22.692Z,24.55
2019-03-25T21:52:50.966Z,24.46
2019-03-25T21:55:19.288Z,26.19
2019-03-25T21:57:47.661Z,26.47
2019-03-25T22:00:16.053Z,25.23
2019-03-25T22:02:44.334Z,26.81
2019-03-25T22:05:12.619Z,25.78
2019-03-25T22:07:40.908Z,24.98
2019-03-25T22:10:09.278Z,25.19
2019-03-25T22:12:37.555Z,25.79
2019-03-25T22:15:09.181Z,25.72
2019-03-25T22:17:38.315Z,24.51
2019-03-25T22:20:10.930Z,24.20
2019-03-25T22:22:40.828Z,25.07
2019-03-25T22:25:09.279Z,24.75
2019-03-25T22:27:37.651Z,25.19
2019-03-25T22:30:07.359Z,25.26
2019-03-25T22:32:35.643Z,25.61
2019-03-25T22:35:05.954Z,24.77
2019-03-25T22:37:34.229Z,25.28
2019-03-25T22:40:02.586Z,22.72
2019-03-25T22:42:31.105Z,22.39
2019-03-25T22:44:59.404Z,22.96
2019-03-25T22:47:27.724Z,22.46
2019-03-25T22:49:55.970Z,22.89
2019-03-25T22:52:24.898Z,22.65
2019-03-25T22:54:53.199Z,22.09
2019-03-25T22:57:21.501Z,21.89
2019-03-25T22:59:49.791Z,22.05
2019-03-25T23:02:18.094Z,21.94
2019-03-25T23:04:46.517Z,21.92
2019-03-25T23:07:14.796Z,22.15
2019-03-25T23:09:43.070Z,20.40
2019-03-25T23:12:11.345Z,20.27
2019-03-25T23:14:39.843Z,20.47
2019-03-25T23:17:08.095Z,20.29
2019-03-25T23:19:38.612Z,19.85
2019-03-25T23:22:06.664Z,20.54
2019-03-25T23:24:35.372Z,20.38
2019-03-25T23:27:04.060Z,21.07
2019-03-25T23:29:32.438Z,20.67
2019-03-25T23:32:00.950Z,20.95
2019-03-25T23:34:29.362Z,20.91
2019-03-25T23:36:57.945Z,21.47
2019-03-25T23:39:26.238Z,21.29
2019-03-25T23:41:54.542Z,20.70
2019-03-25T23:44:22.984Z,20.73
2019-03-25T23:46:51.303Z,21.77
2019-03-25T23:49:20.443Z,21.70
2019-03-25T23:51:48.714Z,20.91
2019-03-25T23:54:16.976Z,20.00
2019-03-25T23:56:45.386Z,20.38
2019-03-25T23:59:13.658Z,20.09
